Time;durP1;ratioP1;P1;durP2;ratioP2;P2;SDS_P1;SDS_P2;PMS_P1;PMS_P2;Temp;Humidity;BMP_temperature;BMP_pressure;BME280_temperature;BME280_humidity;BME280_pressure;Samples;Min_cycle;Max_cycle;Signal;HPM_P1;HPM_P2
2022/04/01 00:09:12;;;;;;;1.27;0.60;;;9.90;56.00;;;;;;20566837;28;20050;-77
2022/04/01 00:19:13;;;;;;;2.65;0.63;;;10.00;56.20;;;;;;20550514;28;20470;-76
2022/04/01 00:29:16;;;;;;;6.60;0.70;;;10.00;56.30;;;;;;20582883;28;20496;-77
2022/04/01 00:39:18;;;;;;;1.38;0.75;;;10.00;56.40;;;;;;20565033;28;20400;-76
2022/04/01 00:49:19;;;;;;;1.13;0.73;;;9.90;56.50;;;;;;20564893;28;20038;-77
2022/04/01 00:59:20;;;;;;;1.38;0.63;;;9.90;56.50;;;;;;20548937;28;20041;-76
2022/04/01 01:09:20;;;;;;;1.45;0.77;;;9.90;56.60;;;;;;20548145;28;20031;-76
2022/04/01 01:19:21;;;;;;;1.42;0.70;;;9.90;56.70;;;;;;20547112;28;20034;-76
2022/04/01 01:29:26;;;;;;;2.45;1.15;;;9.90;56.80;;;;;;20562914;28;20070;-76
2022/04/01 01:39:27;;;;;;;4.30;0.70;;;9.90;56.90;;;;;;20547195;28;20043;-76
2022/04/01 01:49:28;;;;;;;1.33;0.70;;;9.90;57.00;;;;;;20562706;28;20070;-78
2022/04/01 01:59:29;;;;;;;1.80;0.67;;;9.90;57.00;;;;;;20562688;28;20457;-76
2022/04/01 02:09:29;;;;;;;1.50;0.50;;;9.90;57.10;;;;;;20560894;28;20384;-76
2022/04/01 02:19:31;;;;;;;1.60;0.80;;;9.90;57.10;;;;;;20971604;23;20341;-77
2022/04/01 02:29:31;;;;;;;3.20;1.00;;;9.80;57.20;;;;;;20639405;28;20034;-76
2022/04/01 02:39:50;;;;;;;1.70;0.80;;;9.80;57.20;;;;;;20671657;28;20050;-75
2022/04/01 02:49:52;;;;;;;2.20;0.88;;;9.80;57.30;;;;;;20655016;28;20029;-76
2022/04/01 02:59:53;;;;;;;1.80;0.77;;;9.80;57.30;;;;;;20653311;28;20041;-75
2022/04/01 03:09:54;;;;;;;2.00;0.90;;;9.80;57.40;;;;;;20652464;28;20061;-77
2022/04/01 03:19:59;;;;;;;2.45;1.13;;;9.80;57.40;;;;;;20652047;28;20045;-76
2022/04/01 03:29:59;;;;;;;2.15;1.02;;;9.80;57.50;;;;;;20652056;28;20049;-76
2022/04/01 03:40:01;;;;;;;1.20;0.60;;;9.80;57.50;;;;;;20650655;28;20050;-77
2022/04/01 03:50:03;;;;;;;2.60;1.10;;;9.80;57.50;;;;;;20648968;28;20033;-76
2022/04/01 04:00:08;;;;;;;2.83;0.95;;;9.80;57.50;;;;;;20664170;28;20097;-76
2022/04/01 04:10:14;;;;;;;2.35;0.88;;;9.70;57.50;;;;;;20665399;28;20052;-76
2022/04/01 04:20:34;;;;;;;0.80;0.50;;;9.70;57.60;;;;;;20651035;28;20049;-84
2022/04/01 04:30:39;;;;;;;2.78;0.80;;;9.70;57.60;;;;;;20650322;28;20038;-78
2022/04/01 04:41:10;;;;;;;2.33;1.02;;;9.70;57.60;;;;;;20642606;28;20498;-81
2022/04/01 04:51:23;;;;;;;1.30;0.77;;;9.70;57.70;;;;;;20662170;28;20443;-81
2022/04/01 05:01:59;;;;;;;2.25;1.10;;;9.70;57.60;;;;;;20643555;28;20040;-83
2022/04/01 05:12:06;;;;;;;2.10;1.10;;;9.70;57.60;;;;;;20700862;28;20035;-81
2022/04/01 05:22:36;;;;;;;2.50;1.30;;;9.70;57.60;;;;;;20648494;28;20408;-74
2022/04/01 05:32:38;;;;;;;2.47;1.10;;;9.70;57.60;;;;;;20659542;28;20043;-79
2022/04/01 05:42:38;;;;;;;2.60;1.10;;;9.70;57.60;;;;;;20663821;28;20058;-74
2022/04/01 05:53:00;;;;;;;3.42;1.10;;;9.60;57.50;;;;;;20689354;28;20037;-74
2022/04/01 06:03:28;;;;;;;2.35;1.38;;;9.70;57.50;;;;;;20743743;28;20096;-76
2022/04/01 06:13:42;;;;;;;2.13;0.83;;;9.60;57.50;;;;;;20690595;28;20045;-73
2022/04/01 06:24:07;;;;;;;1.58;1.02;;;9.70;57.50;;;;;;20584454;28;20098;-74
2022/04/01 06:34:20;;;;;;;1.42;0.90;;;9.60;57.50;;;;;;20669558;28;20361;-74
2022/04/01 06:44:21;;;;;;;2.85;1.35;;;9.60;57.50;;;;;;20727077;28;20046;-75
2022/04/01 06:54:40;;;;;;;1.50;0.90;;;9.60;57.50;;;;;;20722534;28;20033;-73
2022/04/01 07:04:59;;;;;;;2.70;1.20;;;9.60;57.50;;;;;;20755413;28;20049;-74
2022/04/01 07:14:59;;;;;;;1.35;0.90;;;9.60;57.50;;;;;;20690387;28;20088;-74
2022/04/01 07:25:00;;;;;;;2.03;1.10;;;9.60;57.60;;;;;;20668200;28;20539;-76
2022/04/01 07:35:02;;;;;;;1.48;0.70;;;9.60;57.60;;;;;;20655477;28;20282;-75
2022/04/01 07:45:03;;;;;;;2.95;0.90;;;9.60;57.60;;;;;;20654152;28;20042;-74
2022/04/01 07:55:04;;;;;;;2.05;0.98;;;9.60;57.60;;;;;;20667531;28;20030;-75
2022/04/01 08:05:05;;;;;;;2.63;1.13;;;9.60;57.70;;;;;;20668177;28;20035;-76
2022/04/01 08:15:06;;;;;;;2.15;0.90;;;9.60;57.70;;;;;;20635390;28;20030;-75
2022/04/01 08:25:07;;;;;;;1.73;0.98;;;9.60;57.70;;;;;;20690015;28;20037;-74
2022/04/01 08:35:08;;;;;;;1.58;0.80;;;9.50;57.70;;;;;;20747526;28;20029;-76
2022/04/01 08:45:10;;;;;;;3.08;1.55;;;9.60;57.70;;;;;;20719158;28;20076;-74
2022/04/01 08:55:12;;;;;;;1.00;0.60;;;9.60;57.70;;;;;;20704651;28;20526;-73
2022/04/01 09:05:13;;;;;;;2.15;0.82;;;9.60;57.70;;;;;;20647538;28;20046;-77
2022/04/01 09:15:13;;;;;;;1.65;0.68;;;9.60;57.70;;;;;;20666477;28;20480;-74
2022/04/01 09:25:15;;;;;;;1.55;0.93;;;9.50;58.30;;;;;;20673290;28;20067;-75
2022/04/01 09:35:17;;;;;;;1.38;0.60;;;9.50;57.60;;;;;;20732600;28;20035;-76
2022/04/01 09:45:23;;;;;;;2.78;0.90;;;9.60;57.60;;;;;;20644404;28;20137;-78
2022/04/01 09:55:23;;;;;;;1.95;0.70;;;9.60;57.60;;;;;;20645632;28;20079;-73
2022/04/01 10:05:25;;;;;;;0.88;0.50;;;9.60;57.50;;;;;;20639813;28;20562;-75
2022/04/01 10:15:28;;;;;;;1.67;0.60;;;9.50;57.40;;;;;;20684621;28;20048;-72
2022/04/01 10:25:36;;;;;;;0.82;0.50;;;9.50;57.30;;;;;;20696997;28;20101;-72
2022/04/01 10:35:38;;;;;;;1.63;0.95;;;9.50;58.00;;;;;;20650527;28;20089;-75
2022/04/01 10:45:39;;;;;;;1.05;0.40;;;9.50;57.30;;;;;;20672654;28;20098;-75
2022/04/01 10:55:40;;;;;;;1.15;0.65;;;9.50;57.30;;;;;;20664753;28;20532;-77
2022/04/01 11:05:40;;;;;;;0.90;0.57;;;9.50;57.30;;;;;;20736204;28;20064;-75
2022/04/01 11:15:41;;;;;;;1.10;0.40;;;9.50;57.30;;;;;;20733909;28;20033;-75
2022/04/01 11:25:44;;;;;;;2.00;0.80;;;9.50;57.30;;;;;;20736798;28;20077;-78
2022/04/01 11:35:55;;;;;;;0.75;0.50;;;9.50;57.20;;;;;;20749306;28;20391;-80
2022/04/01 11:46:02;;;;;;;0.50;0.43;;;9.50;57.20;;;;;;20669090;28;20038;-81
2022/04/01 11:56:04;;;;;;;2.05;0.70;;;9.50;57.20;;;;;;20628586;28;20038;-79
2022/04/01 12:16:25;;;;;;;1.70;0.60;;;9.50;57.20;;;;;;20652736;28;20038;-79
2022/04/01 12:26:30;;;;;;;1.02;0.50;;;9.50;57.20;;;;;;20664182;28;20039;-77
2022/04/01 12:36:32;;;;;;;1.67;0.50;;;9.50;57.10;;;;;;20631501;28;20432;-76
2022/04/01 12:46:50;;;;;;;0.85;0.40;;;9.50;57.00;;;;;;20645848;28;20049;-79
2022/04/01 12:56:51;;;;;;;1.30;0.50;;;9.50;57.00;;;;;;20671916;28;20112;-78
2022/04/01 13:07:15;;;;;;;1.95;0.85;;;9.50;57.00;;;;;;20744619;28;20049;-74
2022/04/01 13:17:16;;;;;;;0.40;0.40;;;9.50;57.00;;;;;;20680006;28;20066;-77
2022/04/01 13:27:18;;;;;;;1.15;0.65;;;9.40;56.90;;;;;;20648802;28;20637;-77
2022/04/01 13:37:18;;;;;;;0.90;0.47;;;9.40;56.90;;;;;;20642714;28;20444;-79
2022/04/01 13:47:19;;;;;;;0.60;0.40;;;9.50;57.00;;;;;;20655048;28;20065;-79
2022/04/01 13:57:21;;;;;;;0.90;0.43;;;9.50;57.00;;;;;;20646325;28;20477;-81
2022/04/01 14:07:21;;;;;;;2.05;0.50;;;9.50;57.00;;;;;;20660271;28;20180;-81
2022/04/01 14:17:23;;;;;;;2.30;0.40;;;9.50;57.00;;;;;;20658367;28;20477;-80
2022/04/01 14:27:23;;;;;;;1.45;0.70;;;9.50;56.90;;;;;;20657813;28;20051;-82
2022/04/01 14:37:25;;;;;;;14.82;1.40;;;9.50;56.90;;;;;;20659963;28;20469;-81
2022/04/01 14:47:26;;;;;;;6.05;1.67;;;9.40;55.10;;;;;;20638422;28;20038;-78
2022/04/01 14:57:26;;;;;;;52.93;6.47;;;9.50;54.20;;;;;;20653404;28;20092;-79
2022/04/01 15:07:27;;;;;;;84.25;14.45;;;9.60;54.50;;;;;;20671330;28;20332;-79
2022/04/01 15:17:35;;;;;;;9.32;2.03;;;9.70;55.00;;;;;;20635088;28;20030;-80
2022/04/01 15:27:37;;;;;;;9.55;1.52;;;9.80;55.50;;;;;;20649949;28;20045;-78
2022/04/01 15:37:38;;;;;;;3.67;1.08;;;9.80;55.70;;;;;;20665439;28;20480;-77
2022/04/01 15:47:39;;;;;;;3.10;0.68;;;9.80;55.80;;;;;;20648967;28;20077;-79
2022/04/01 15:57:40;;;;;;;5.47;1.10;;;9.80;55.80;;;;;;20649748;28;20093;-80
2022/04/01 16:07:41;;;;;;;1.20;0.43;;;9.80;55.90;;;;;;20647624;28;20468;-78
2022/04/01 16:17:41;;;;;;;4.72;0.90;;;9.80;55.80;;;;;;20657780;28;20058;-76
2022/04/01 16:27:43;;;;;;;3.30;0.80;;;9.70;55.80;;;;;;20629734;28;20038;-80
2022/04/01 16:37:43;;;;;;;1.90;1.00;;;9.70;55.90;;;;;;20645905;28;20031;-75
2022/04/01 16:47:44;;;;;;;2.22;0.63;;;9.70;55.90;;;;;;20641454;28;20026;-75
2022/04/01 16:57:44;;;;;;;1.85;0.65;;;9.70;55.80;;;;;;20657042;28;20088;-79
2022/04/01 17:18:05;;;;;;;1.65;0.55;;;9.60;55.70;;;;;;20658382;28;20694;-78
2022/04/01 17:28:07;;;;;;;4.47;0.77;;;9.60;55.10;;;;;;20681260;28;20041;-80
2022/04/01 17:38:07;;;;;;;1.38;0.70;;;9.60;55.10;;;;;;20667733;28;20045;-82
2022/04/01 17:48:08;;;;;;;0.80;0.57;;;9.70;55.30;;;;;;20669182;28;20038;-79
2022/04/01 17:58:12;;;;;;;1.88;0.60;;;9.60;55.30;;;;;;20685349;28;20042;-74
2022/04/01 18:08:17;;;;;;;1.42;0.45;;;9.60;55.30;;;;;;20684189;28;20045;-79
2022/04/01 18:18:21;;;;;;;0.20;0.20;;;9.70;55.20;;;;;;20679203;28;20038;-77
2022/04/01 18:28:22;;;;;;;1.10;0.32;;;9.80;55.20;;;;;;20665391;28;20395;-77
2022/04/01 18:38:24;;;;;;;1.73;0.50;;;9.80;55.30;;;;;;20638584;28;20068;-78
2022/04/01 18:48:24;;;;;;;1.45;0.50;;;9.70;55.30;;;;;;20652505;28;20081;-77
2022/04/01 18:58:28;;;;;;;1.52;0.50;;;9.70;55.30;;;;;;20667182;28;20121;-78
2022/04/01 19:08:40;;;;;;;0.52;0.38;;;9.80;55.30;;;;;;20667296;28;20316;-78
2022/04/01 19:18:45;;;;;;;1.63;0.40;;;9.80;55.30;;;;;;20649880;28;20049;-74
2022/04/01 19:28:46;;;;;;;1.30;0.40;;;9.80;55.20;;;;;;20646635;28;20039;-77
2022/04/01 19:38:47;;;;;;;0.70;0.50;;;9.80;55.20;;;;;;20671698;28;20030;-78
2022/04/01 19:48:47;;;;;;;0.88;0.30;;;9.80;55.20;;;;;;20659931;28;20049;-77
2022/04/01 19:58:48;;;;;;;1.02;0.60;;;9.70;55.80;;;;;;20646092;28;20193;-77
2022/04/01 20:08:49;;;;;;;0.20;0.20;;;9.70;55.30;;;;;;20662365;28;20034;-77
2022/04/01 20:18:49;;;;;;;0.43;0.40;;;9.70;55.40;;;;;;20660835;28;20118;-77
2022/04/01 20:28:51;;;;;;;1.05;0.32;;;9.60;55.40;;;;;;20661560;28;20042;-76
2022/04/01 20:38:52;;;;;;;1.27;0.38;;;9.60;55.50;;;;;;20644423;28;20109;-76
2022/04/01 20:48:52;;;;;;;0.50;0.30;;;9.60;55.50;;;;;;20645272;28;20034;-76
2022/04/01 20:58:53;;;;;;;1.67;0.43;;;9.60;55.50;;;;;;20659052;28;20512;-77
2022/04/01 21:08:54;;;;;;;0.10;0.10;;;9.60;55.60;;;;;;20662239;28;20045;-78
2022/04/01 21:18:54;;;;;;;0.30;0.20;;;9.60;55.60;;;;;;20647592;28;20125;-77
2022/04/01 21:28:55;;;;;;;0.68;0.32;;;9.50;55.60;;;;;;20642226;28;20278;-78
2022/04/01 21:38:56;;;;;;;0.38;0.30;;;9.50;55.70;;;;;;20642575;28;20289;-77
2022/04/01 21:48:57;;;;;;;0.60;0.33;;;9.50;55.70;;;;;;20657325;28;20093;-77
2022/04/01 21:58:57;;;;;;;0.90;0.22;;;9.60;55.80;;;;;;20657977;28;20301;-78
2022/04/01 22:08:58;;;;;;;2.07;0.43;;;9.50;55.70;;;;;;20644889;28;20042;-77
2022/04/01 22:18:58;;;;;;;0.50;0.43;;;9.60;55.70;;;;;;20672007;28;20795;-77
2022/04/01 22:28:59;;;;;;;0.70;0.30;;;9.50;55.60;;;;;;20670571;28;20065;-78
2022/04/01 22:39:00;;;;;;;1.35;0.38;;;9.60;55.80;;;;;;20671791;28;20366;-78
2022/04/01 22:49:02;;;;;;;0.52;0.25;;;9.50;55.80;;;;;;20670421;28;20030;-78
2022/04/01 22:59:03;;;;;;;0.57;0.40;;;9.50;55.90;;;;;;20669401;28;20117;-78
2022/04/01 23:09:04;;;;;;;1.00;0.50;;;9.50;55.90;;;;;;20668507;28;20040;-78
2022/04/01 23:19:05;;;;;;;0.45;0.35;;;9.50;56.00;;;;;;20650803;28;20370;-78
2022/04/01 23:29:07;;;;;;;1.30;0.43;;;9.60;56.00;;;;;;20666988;28;20046;-77
2022/04/01 23:39:08;;;;;;;0.73;0.45;;;9.50;55.90;;;;;;20665546;28;20050;-78
2022/04/01 23:49:08;;;;;;;0.32;0.30;;;9.50;55.90;;;;;;20649310;28;20031;-77
2022/04/01 23:59:10;;;;;;;0.28;0.20;;;9.50;55.90;;;;;;20648286;28;20034;-78
